createdAt,value
2023-09-15T00:00:55.199Z,100213.00
2023-09-15T00:03:23.532Z,100210.28
2023-09-15T00:05:51.608Z,100218.44
2023-09-15T00:08:20.923Z,100222.25
2023-09-15T00:10:49.317Z,100223.06
2023-09-15T00:13:17.519Z,100222.25
2023-09-15T00:15:45.571Z,100223.06
2023-09-15T00:18:13.625Z,100228.50
2023-09-15T00:20:41.659Z,100229.31
2023-09-15T00:23:09.571Z,100231.47
2023-09-15T00:25:38.852Z,100235.25
2023-09-15T00:28:08.346Z,100232.53
2023-09-15T00:30:38.687Z,100239.06
2023-09-15T00:33:06.652Z,100239.06
2023-09-15T00:35:35.010Z,100237.38
2023-09-15T00:38:03.532Z,100241.19
2023-09-15T00:40:31.998Z,100246.63
2023-09-15T00:43:01.351Z,100248.25
2023-09-15T00:45:29.395Z,100243.09
2023-09-15T00:47:58.237Z,100238.69
2023-09-15T00:50:28.373Z,100246.03
2023-09-15T00:52:58.792Z,100244.41
2023-09-15T00:55:27.065Z,100244.13
2023-09-15T00:57:55.902Z,100245.22
2023-09-15T01:00:25.419Z,100253.38
2023-09-15T01:02:53.619Z,100244.41
2023-09-15T01:05:25.369Z,100250.06
2023-09-15T01:07:53.819Z,100250.88
2023-09-15T01:10:22.209Z,100256.31
2023-09-15T01:12:50.691Z,100253.59
2023-09-15T01:15:19.053Z,100260.13
2023-09-15T01:17:54.836Z,100260.94
2023-09-15T01:20:27.797Z,100260.13
2023-09-15T01:23:09.893Z,100269.91
2023-09-15T01:25:56.674Z,100261.22
2023-09-15T01:28:41.767Z,100271.22
2023-09-15T01:31:11.415Z,100266.88
2023-09-15T01:33:40.029Z,100268.78
2023-09-15T01:36:08.201Z,100267.69
2023-09-15T01:38:36.210Z,100264.97
2023-09-15T01:41:05.293Z,100263.09
2023-09-15T01:43:33.488Z,100264.75
2023-09-15T01:46:01.661Z,100265.81
2023-09-15T01:48:31.362Z,100275.63
2023-09-15T01:50:59.747Z,100276.66
2023-09-15T01:53:27.850Z,100279.38
2023-09-15T01:55:55.867Z,100285.09
2023-09-15T01:58:23.919Z,100284.81
2023-09-15T02:00:53.837Z,100285.91
2023-09-15T02:03:22.112Z,100290.53
2023-09-15T02:05:51.636Z,100290.53
2023-09-15T02:08:19.693Z,100288.63
2023-09-15T02:10:47.768Z,100282.38
2023-09-15T02:13:15.976Z,100292.44
2023-09-15T02:15:44.181Z,100288.84
2023-09-15T02:18:12.414Z,100292.44
2023-09-15T02:20:42.256Z,100294.28
2023-09-15T02:23:11.769Z,100297.00
2023-09-15T02:25:39.758Z,100298.69
2023-09-15T02:28:08.366Z,100291.56
2023-09-15T02:30:36.423Z,100292.66
2023-09-15T02:33:05.010Z,100292.66
2023-09-15T02:35:33.057Z,100295.38
2023-09-15T02:38:01.115Z,100296.47
2023-09-15T02:40:30.629Z,100299.19
2023-09-15T02:42:58.678Z,100309.22
2023-09-15T02:45:26.776Z,100311.94
2023-09-15T02:47:54.792Z,100309.47
2023-09-15T02:50:23.246Z,100317.63
2023-09-15T02:52:51.364Z,100308.63
2023-09-15T02:55:19.625Z,100315.97
2023-09-15T02:57:49.150Z,100318.69
2023-09-15T03:00:17.887Z,100316.78
2023-09-15T03:02:46.114Z,100324.94
2023-09-15T03:05:14.616Z,100317.63
2023-09-15T03:07:43.609Z,100304.25
2023-09-15T03:10:12.370Z,100315.97
2023-09-15T03:12:40.432Z,100304.25
2023-09-15T03:15:10.802Z,100307.81
2023-09-15T03:17:39.220Z,100308.88
2023-09-15T03:20:14.607Z,100307.81
2023-09-15T03:22:42.814Z,100308.88
2023-09-15T03:25:10.995Z,100308.88
2023-09-15T03:27:39.085Z,100314.31
2023-09-15T03:30:09.640Z,100304.25
2023-09-15T03:32:37.706Z,100311.84
2023-09-15T03:35:08.148Z,100311.59
2023-09-15T03:37:36.209Z,100311.84
2023-09-15T03:40:06.402Z,100311.84
2023-09-15T03:42:35.199Z,100314.00
2023-09-15T03:45:03.899Z,100320.25
2023-09-15T03:47:34.065Z,100319.41
2023-09-15T03:50:04.170Z,100318.59
2023-09-15T03:52:32.198Z,100313.16
2023-09-15T03:55:02.260Z,100318.59
2023-09-15T03:57:31.516Z,100322.38
2023-09-15T03:59:59.630Z,100316.94
2023-09-15T04:02:27.654Z,100318.59
2023-09-15T04:04:57.044Z,100323.19
2023-09-15T04:07:25.138Z,100316.09
2023-09-15T04:09:53.784Z,100321.53
2023-09-15T04:12:21.954Z,100318.81
2023-09-15T04:14:50.060Z,100328.63
2023-09-15T04:17:18.074Z,100324.25
2023-09-15T04:19:46.075Z,100317.97
2023-09-15T04:22:15.853Z,100327.81
2023-09-15T04:24:43.879Z,100333.25
2023-09-15T04:27:11.956Z,100333.25
2023-09-15T04:29:51.676Z,100340.78
2023-09-15T04:32:19.981Z,100337.00
2023-09-15T04:34:48.099Z,100344.34
2023-09-15T04:37:17.582Z,100347.06
2023-09-15T04:39:45.629Z,100342.66
2023-09-15T04:42:13.641Z,100355.44
2023-09-15T04:44:41.645Z,100350.81
2023-09-15T04:47:10.170Z,100355.44
2023-09-15T04:49:38.189Z,100359.22
2023-09-15T04:52:07.350Z,100354.84
2023-09-15T04:54:36.904Z,100359.22
2023-09-15T04:57:06.084Z,100364.66
2023-09-15T04:59:34.184Z,100360.06
2023-09-15T05:02:02.452Z,100366.31
2023-09-15T05:04:30.583Z,100361.69
2023-09-15T05:06:58.788Z,100367.13
2023-09-15T05:09:27.316Z,100370.66
2023-09-15T05:11:57.054Z,100378.81
2023-09-15T05:14:25.167Z,100369.63
2023-09-15T05:16:53.370Z,100375.06
2023-09-15T05:19:21.505Z,100380.72
2023-09-15T05:21:51.425Z,100368.56
2023-09-15T05:24:19.541Z,100379.66
2023-09-15T05:26:47.648Z,100375.06
2023-09-15T05:29:17.069Z,100375.06
2023-09-15T05:31:45.194Z,100375.06
2023-09-15T05:34:13.302Z,100383.19
2023-09-15T05:36:41.366Z,100379.66
2023-09-15T05:39:09.982Z,100384.88
2023-09-15T05:41:38.082Z,100382.16
2023-09-15T05:44:06.727Z,100380.47
2023-09-15T05:46:36.355Z,100384.03
2023-09-15T05:49:04.632Z,100382.16
2023-09-15T05:51:32.660Z,100386.53
2023-09-15T05:54:00.756Z,100383.81
2023-09-15T05:56:30.775Z,100386.28
2023-09-15T05:58:59.421Z,100381.66
2023-09-15T06:01:27.624Z,100383.34
2023-09-15T06:03:57.292Z,100383.34
2023-09-15T06:06:25.334Z,100387.69
2023-09-15T06:08:53.418Z,100387.69
2023-09-15T06:11:21.462Z,100390.41
2023-09-15T06:13:49.447Z,100391.00
2023-09-15T06:16:17.571Z,100393.72
2023-09-15T06:18:46.320Z,100391.00
2023-09-15T06:21:16.340Z,100394.78
2023-09-15T06:23:44.767Z,100396.44
2023-09-15T06:26:12.788Z,100398.31
2023-09-15T06:28:40.906Z,100398.31
2023-09-15T06:31:09.065Z,100400.22
2023-09-15T06:33:37.115Z,100397.50
2023-09-15T06:36:05.906Z,100401.88
2023-09-15T06:38:35.405Z,100391.00
2023-09-15T06:41:03.512Z,100396.66
2023-09-15T06:43:31.673Z,100389.91
2023-09-15T06:45:59.724Z,100397.03
2023-09-15T06:48:27.747Z,100385.34
2023-09-15T06:50:56.365Z,100388.59
2023-09-15T06:53:25.057Z,100394.03
2023-09-15T06:55:57.437Z,100396.53
2023-09-15T06:58:25.661Z,100394.63
2023-09-15T07:00:56.554Z,100401.47
2023-09-15T07:03:25.398Z,100397.69
2023-09-15T07:05:53.579Z,100394.94
2023-09-15T07:08:21.675Z,100392.25
2023-09-15T07:10:52.495Z,100394.94
2023-09-15T07:13:21.970Z,100395.22
2023-09-15T07:15:50.108Z,100399.56
2023-09-15T07:18:18.214Z,100396.03
2023-09-15T07:20:46.300Z,100394.13
2023-09-15T07:23:14.416Z,100394.94
2023-09-15T07:25:42.586Z,100397.69
2023-09-15T07:28:10.693Z,100395.22
2023-09-15T07:30:40.220Z,100395.22
2023-09-15T07:33:08.977Z,100391.41
2023-09-15T07:35:37.462Z,100382.69
2023-09-15T07:38:05.554Z,100389.53
2023-09-15T07:40:33.925Z,100379.50
2023-09-15T07:43:02.116Z,100384.09
2023-09-15T07:45:30.248Z,100379.22
2023-09-15T07:47:59.720Z,100386.34
2023-09-15T07:50:30.416Z,100387.97
2023-09-15T07:52:58.500Z,100395.06
2023-09-15T07:55:26.633Z,100389.63
2023-09-15T07:57:54.660Z,100386.66
2023-09-15T08:00:22.982Z,100389.63
2023-09-15T08:02:51.053Z,100392.34
2023-09-15T08:05:20.793Z,100385.03
2023-09-15T08:07:50.661Z,100394.81
2023-09-15T08:10:20.357Z,100395.63
2023-09-15T08:12:50.064Z,100390.19
2023-09-15T08:15:18.216Z,100392.91
2023-09-15T08:17:46.613Z,100394.59
2023-09-15T08:20:15.147Z,100387.47
2023-09-15T08:22:44.641Z,100392.09
2023-09-15T08:25:13.157Z,100392.91
2023-09-15T08:27:41.293Z,100401.06
2023-09-15T08:30:10.237Z,100387.47
2023-09-15T08:32:38.683Z,100393.75
2023-09-15T08:35:07.669Z,100390.78
2023-09-15T08:37:35.802Z,100389.16
2023-09-15T08:40:06.462Z,100389.16
2023-09-15T08:42:34.622Z,100387.47
2023-09-15T08:45:06.059Z,100393.50
2023-09-15T08:47:35.504Z,100398.94
2023-09-15T08:50:04.731Z,100392.44
2023-09-15T08:52:33.340Z,100396.81
2023-09-15T08:55:01.429Z,100390.28
2023-09-15T08:57:31.142Z,100389.22
2023-09-15T08:59:59.223Z,100386.50
2023-09-15T09:02:28.194Z,100381.91
2023-09-15T09:04:56.348Z,100383.53
2023-09-15T09:07:24.438Z,100391.69
2023-09-15T09:09:52.577Z,100387.34
2023-09-15T09:12:20.593Z,100381.91
2023-09-15T09:14:54.542Z,100386.50
2023-09-15T09:17:22.629Z,100392.78
2023-09-15T09:19:51.044Z,100392.78
2023-09-15T09:22:19.111Z,100385.44
2023-09-15T09:24:47.742Z,100380.00
2023-09-15T09:27:15.950Z,100389.81
2023-09-15T09:29:43.992Z,100389.81
2023-09-15T09:32:16.462Z,100395.25
2023-09-15T09:34:48.027Z,100394.41
2023-09-15T09:37:16.540Z,100394.19
2023-09-15T09:39:45.747Z,100388.75
2023-09-15T09:42:13.950Z,100395.59
2023-09-15T09:44:42.155Z,100390.97
2023-09-15T09:47:11.217Z,100390.16
2023-09-15T09:49:42.686Z,100388.25
2023-09-15T09:52:10.819Z,100394.75
2023-09-15T09:54:39.019Z,100389.91
2023-09-15T09:57:07.203Z,100385.28
2023-09-15T09:59:38.061Z,100388.59
2023-09-15T10:02:07.198Z,100382.31
2023-09-15T10:04:35.874Z,100389.41
2023-09-15T10:07:05.969Z,100391.28
2023-09-15T10:09:34.176Z,100389.41
2023-09-15T10:12:03.256Z,100386.69
2023-09-15T10:14:31.323Z,100385.03
2023-09-15T10:16:59.730Z,100386.69
2023-09-15T10:19:28.161Z,100381.25
2023-09-15T10:21:56.180Z,100387.53
2023-09-15T10:24:28.338Z,100385.03
2023-09-15T10:26:56.435Z,100388.84
2023-09-15T10:29:24.490Z,100378.78
2023-09-15T10:31:54.696Z,100374.16
2023-09-15T10:34:22.825Z,100385.03
2023-09-15T10:36:50.994Z,100372.53
2023-09-15T10:39:19.503Z,100367.91
2023-09-15T10:41:49.000Z,100374.16
2023-09-15T10:44:17.076Z,100369.81
2023-09-15T10:46:45.271Z,100363.28
2023-09-15T10:49:17.140Z,100362.78
2023-09-15T10:51:57.987Z,100367.16
2023-09-15T10:54:26.979Z,100362.78
2023-09-15T10:56:56.631Z,100370.94
2023-09-15T10:59:24.684Z,100363.88
2023-09-15T11:01:52.756Z,100360.34
2023-09-15T11:04:22.481Z,100364.94
2023-09-15T11:06:51.285Z,100355.72
2023-09-15T11:09:19.477Z,100349.47
2023-09-15T11:11:47.744Z,100356.53
2023-09-15T11:14:18.247Z,100357.34
2023-09-15T11:16:50.247Z,100352.19
2023-09-15T11:19:18.728Z,100361.16
2023-09-15T11:21:46.740Z,100342.94
2023-09-15T11:24:14.821Z,100350.28
2023-09-15T11:26:47.193Z,100344.84
2023-09-15T11:29:15.679Z,100346.47
2023-09-15T11:31:45.562Z,100339.41
2023-09-15T11:34:16.929Z,100340.22
2023-09-15T11:36:48.133Z,100334.78
2023-09-15T11:39:16.639Z,100335.00
2023-09-15T11:41:53.768Z,100331.25
2023-09-15T11:44:22.320Z,100325.22
2023-09-15T11:46:51.867Z,100324.72
2023-09-15T11:49:20.970Z,100322.00
2023-09-15T11:51:49.132Z,100324.72
2023-09-15T11:54:17.316Z,100316.56
2023-09-15T11:56:47.131Z,100319.28
2023-09-15T11:59:16.277Z,100305.44
2023-09-15T12:01:44.366Z,100310.03
2023-09-15T12:04:14.077Z,100309.00
2023-09-15T12:06:42.930Z,100299.16
2023-09-15T12:09:13.541Z,100306.50
2023-09-15T12:11:42.794Z,100301.34
2023-09-15T12:14:12.025Z,100295.88
2023-09-15T12:16:40.455Z,100299.66
2023-09-15T12:19:08.738Z,100294.00
2023-09-15T12:21:38.252Z,100295.88
2023-09-15T12:24:12.758Z,100283.13
2023-09-15T12:26:42.372Z,100288.28
2023-09-15T12:29:10.533Z,100284.75
2023-09-15T12:31:42.409Z,100273.63
2023-09-15T12:34:20.083Z,100277.16
2023-09-15T12:36:53.785Z,100276.09
2023-09-15T12:39:22.153Z,100278.81
2023-09-15T12:42:11.259Z,100274.22
2023-09-15T12:44:42.262Z,100268.78
2023-09-15T12:47:10.431Z,100273.13
2023-09-15T12:49:38.588Z,100262.25
2023-09-15T12:52:08.101Z,100251.38
2023-09-15T12:54:36.282Z,100254.09
2023-09-15T12:57:04.852Z,100253.00
2023-09-15T12:59:33.225Z,100253.88
2023-09-15T13:02:01.330Z,100257.41
2023-09-15T13:04:29.695Z,100254.69
2023-09-15T13:06:58.158Z,100251.38
2023-09-15T13:09:29.220Z,100248.66
2023-09-15T13:11:58.955Z,100241.59
2023-09-15T13:14:27.060Z,100245.34
2023-09-15T13:16:55.111Z,100237.19
2023-09-15T13:19:23.109Z,100243.47
2023-09-15T13:21:51.165Z,100235.28
2023-09-15T13:24:19.929Z,100238.88
2023-09-15T13:26:49.467Z,100244.84
2023-09-15T13:29:17.593Z,100240.25
2023-09-15T13:31:45.768Z,100243.81
2023-09-15T13:34:13.877Z,100242.72
2023-09-15T13:36:41.927Z,100236.22
2023-09-15T13:39:10.269Z,100228.88
2023-09-15T13:41:38.420Z,100228.88
2023-09-15T13:44:07.908Z,100236.22
2023-09-15T13:46:37.628Z,100229.94
2023-09-15T13:49:07.037Z,100227.22
2023-09-15T13:51:42.199Z,100226.16
2023-09-15T13:54:11.212Z,100220.72
2023-09-15T13:56:39.360Z,100214.47
2023-09-15T13:59:09.186Z,100208.19
2023-09-15T14:01:38.551Z,100213.38
2023-09-15T14:04:08.234Z,100209.84
2023-09-15T14:06:36.620Z,100219.06
2023-09-15T14:09:04.992Z,100214.47
2023-09-15T14:11:33.211Z,100221.78
2023-09-15T14:14:01.255Z,100210.66
2023-09-15T14:16:30.670Z,100206.03
2023-09-15T14:18:59.062Z,100206.03
2023-09-15T14:21:27.229Z,100207.69
2023-09-15T14:23:55.400Z,100197.66
2023-09-15T14:26:23.662Z,100199.28
2023-09-15T14:28:51.694Z,100200.09
2023-09-15T14:31:19.843Z,100200.94
2023-09-15T14:33:49.362Z,100201.75
2023-09-15T14:36:17.458Z,100197.13
2023-09-15T14:38:45.722Z,100195.22
2023-09-15T14:41:13.952Z,100191.69
2023-09-15T14:43:42.614Z,100192.50
2023-09-15T14:46:12.173Z,100187.88
2023-09-15T14:48:40.628Z,100193.31
2023-09-15T14:51:10.167Z,100193.31
2023-09-15T14:53:38.241Z,100191.69
2023-09-15T14:56:06.266Z,100188.97
2023-09-15T14:58:34.347Z,100190.06
2023-09-15T15:01:02.519Z,100192.78
2023-09-15T15:03:30.797Z,100181.91
2023-09-15T15:05:58.991Z,100186.25
2023-09-15T15:08:28.568Z,100181.91
2023-09-15T15:10:57.242Z,100185.69
2023-09-15T15:13:26.163Z,100186.50
2023-09-15T15:15:54.309Z,100188.41
2023-09-15T15:18:22.593Z,100197.13
2023-09-15T15:20:52.150Z,100194.41
2023-09-15T15:23:20.285Z,100198.78
2023-09-15T15:25:49.781Z,100198.78
2023-09-15T15:28:18.492Z,100200.44
2023-09-15T15:30:46.777Z,100200.16
2023-09-15T15:33:14.870Z,100203.69
2023-09-15T15:35:42.959Z,100203.69
2023-09-15T15:38:11.090Z,100195.53
2023-09-15T15:40:39.212Z,100188.47
2023-09-15T15:43:08.710Z,100191.19
2023-09-15T15:45:36.812Z,100200.16
2023-09-15T15:48:05.862Z,100202.88
2023-09-15T15:50:33.926Z,100202.06
2023-09-15T15:53:02.002Z,100195.00
2023-09-15T15:55:32.556Z,100187.88
2023-09-15T15:58:00.612Z,100204.22
2023-09-15T16:00:30.075Z,100197.13
2023-09-15T16:02:58.372Z,100194.66
2023-09-15T16:05:26.585Z,100189.72
2023-09-15T16:07:54.595Z,100192.19
2023-09-15T16:10:22.589Z,100194.91
2023-09-15T16:12:50.614Z,100190.53
2023-09-15T16:15:18.877Z,100188.91
2023-09-15T16:17:48.335Z,100186.19
2023-09-15T16:20:16.517Z,100197.88
2023-09-15T16:22:47.083Z,100200.59
2023-09-15T16:25:15.091Z,100200.88
2023-09-15T16:27:43.431Z,100203.59
2023-09-15T16:30:12.161Z,100199.78
2023-09-15T16:32:40.830Z,100200.03
2023-09-15T16:35:12.490Z,100202.75
2023-09-15T16:37:43.016Z,100201.09
2023-09-15T16:40:12.129Z,100208.44
2023-09-15T16:42:40.210Z,100208.69
2023-09-15T16:45:10.718Z,100200.78
2023-09-15T16:47:38.884Z,100212.50
2023-09-15T16:50:09.590Z,100199.94
2023-09-15T16:52:38.999Z,100206.47
2023-09-15T16:55:07.773Z,100208.38
2023-09-15T16:57:35.829Z,100212.16
2023-09-15T17:00:04.956Z,100214.88
2023-09-15T17:02:34.862Z,100213.22
2023-09-15T17:05:04.049Z,100215.94
2023-09-15T17:07:33.367Z,100218.66
2023-09-15T17:10:04.557Z,100221.38
2023-09-15T17:12:32.895Z,100225.19
2023-09-15T17:15:01.006Z,100224.09
2023-09-15T17:17:29.137Z,100217.59
2023-09-15T17:19:57.216Z,100217.84
2023-09-15T17:22:25.429Z,100224.09
2023-09-15T17:24:53.657Z,100228.72
2023-09-15T17:27:23.224Z,100230.63
2023-09-15T17:29:51.589Z,100232.25
2023-09-15T17:32:19.610Z,100225.19
2023-09-15T17:34:49.441Z,100225.19
2023-09-15T17:37:18.093Z,100226.25
2023-09-15T17:39:50.325Z,100236.06
2023-09-15T17:42:18.638Z,100230.03
2023-09-15T17:44:48.201Z,100227.34
2023-09-15T17:47:16.749Z,100242.81
2023-09-15T17:50:11.448Z,100245.78
2023-09-15T17:52:40.856Z,100244.16
2023-09-15T17:55:09.945Z,100244.16
2023-09-15T17:57:39.982Z,100247.91
2023-09-15T18:00:10.730Z,100243.56
2023-09-15T18:02:38.794Z,100257.16
2023-09-15T18:05:07.360Z,100260.97
2023-09-15T18:07:35.746Z,100260.97
2023-09-15T18:10:05.885Z,100255.53
2023-09-15T18:12:34.589Z,100262.59
2023-09-15T18:15:02.750Z,100265.56
2023-09-15T18:17:32.457Z,100272.66
2023-09-15T18:20:00.553Z,100278.09
2023-09-15T18:22:28.576Z,100276.44
2023-09-15T18:24:56.780Z,100277.28
2023-09-15T18:27:24.971Z,100283.53
2023-09-15T18:29:53.228Z,100278.09
2023-09-15T18:32:21.290Z,100277.28
2023-09-15T18:34:50.882Z,100281.03
2023-09-15T18:37:18.896Z,100278.31
2023-09-15T18:39:46.879Z,100289.19
2023-09-15T18:42:14.942Z,100280.47
2023-09-15T18:44:43.286Z,100284.84
2023-09-15T18:47:11.521Z,100286.75
2023-09-15T18:49:40.173Z,100294.06
2023-09-15T18:55:05.982Z,100294.31
2023-09-15T18:57:34.207Z,100295.38
2023-09-15T19:00:07.205Z,100293.75
2023-09-15T19:02:35.916Z,100292.91
2023-09-15T19:05:05.016Z,100296.72
2023-09-15T19:07:34.411Z,100297.53
2023-09-15T19:10:05.212Z,100291.28
2023-09-15T19:12:33.380Z,100295.88
2023-09-15T19:15:01.956Z,100291.28
2023-09-15T19:20:01.133Z,100294.00
2023-09-15T19:22:29.291Z,100295.88
2023-09-15T19:24:58.740Z,100290.44
2023-09-15T19:27:27.306Z,100285.00
2023-09-15T19:29:57.253Z,100285.00
2023-09-15T19:32:26.263Z,100283.13
2023-09-15T19:34:55.148Z,100278.75
2023-09-15T19:37:25.353Z,100281.47
2023-09-15T19:39:55.751Z,100277.09
2023-09-15T19:42:25.731Z,100277.09
2023-09-15T19:44:56.099Z,100278.16
2023-09-15T19:47:24.490Z,100275.44
2023-09-15T19:49:52.611Z,100279.25
2023-09-15T19:52:20.655Z,100283.84
2023-09-15T19:54:48.803Z,100276.53
2023-09-15T19:57:17.241Z,100280.31
2023-09-15T19:59:46.719Z,100278.66
2023-09-15T20:02:14.831Z,100279.75
2023-09-15T20:04:42.919Z,100269.91
2023-09-15T20:07:10.941Z,100277.03
2023-09-15T20:09:39.085Z,100272.63
2023-09-15T20:12:08.159Z,100271.81
2023-09-15T20:14:36.228Z,100273.13
2023-09-15T20:17:05.938Z,100273.72
2023-09-15T20:19:34.041Z,100271.22
2023-09-15T20:22:02.182Z,100268.78
2023-09-15T20:24:30.764Z,100262.25
2023-09-15T20:26:58.961Z,100262.53
2023-09-15T20:29:27.580Z,100269.84
2023-09-15T20:31:55.731Z,100264.41
2023-09-15T20:34:25.276Z,100261.94
2023-09-15T20:36:53.459Z,100257.31
2023-09-15T20:39:21.493Z,100261.13
2023-09-15T20:41:49.503Z,100263.84
2023-09-15T20:44:17.607Z,100259.47
2023-09-15T20:46:45.908Z,100259.47
2023-09-15T20:49:14.059Z,100264.88
2023-09-15T20:51:43.554Z,100259.72
2023-09-15T20:54:11.757Z,100273.31
2023-09-15T20:56:41.084Z,100267.06
2023-09-15T20:59:09.120Z,100274.13
2023-09-15T21:01:36.236Z,100276.84
2023-09-15T21:04:04.435Z,100274.13
2023-09-15T21:06:32.591Z,100276.63
2023-09-15T21:09:02.086Z,100274.94
2023-09-15T21:11:30.220Z,100274.13
2023-09-15T21:13:58.311Z,100270.34
2023-09-15T21:16:26.868Z,100272.22
2023-09-15T21:18:55.027Z,100276.63
2023-09-15T21:21:23.166Z,100270.34
2023-09-15T21:23:51.248Z,100270.34
2023-09-15T21:26:20.753Z,100270.34
2023-09-15T21:28:49.382Z,100271.19
2023-09-15T21:31:17.737Z,100274.72
2023-09-15T21:33:45.897Z,100267.63
2023-09-15T21:36:13.984Z,100269.50
2023-09-15T21:38:42.004Z,100266.56
2023-09-15T21:41:10.154Z,100268.69
2023-09-15T21:43:39.705Z,100264.06
2023-09-15T21:46:07.943Z,100272.22
2023-09-15T21:48:36.258Z,100266.78
2023-09-15T21:51:06.015Z,100265.16
2023-09-15T21:53:34.517Z,100268.69
2023-09-15T21:56:02.554Z,100265.97
2023-09-15T21:58:30.641Z,100263.25
2023-09-15T22:01:00.101Z,100257.00
2023-09-15T22:03:28.368Z,100260.78
2023-09-15T22:05:56.561Z,100254.53
2023-09-15T22:08:24.598Z,100258.31
2023-09-15T22:10:52.584Z,100257.50
2023-09-15T22:13:20.863Z,100253.94
2023-09-15T22:15:49.112Z,100256.66
2023-09-15T22:18:18.705Z,100250.41
2023-09-15T22:20:46.751Z,100249.59
2023-09-15T22:23:15.403Z,100252.31
2023-09-15T22:25:43.899Z,100252.31
2023-09-15T22:28:11.997Z,100247.94
2023-09-15T22:30:40.138Z,100249.59
2023-09-15T22:33:08.343Z,100248.75
2023-09-15T22:35:37.893Z,100253.38
2023-09-15T22:38:06.288Z,100253.38
2023-09-15T22:40:35.281Z,100256.09
2023-09-15T22:43:08.030Z,100260.44
2023-09-15T22:45:38.442Z,100253.38
2023-09-15T22:48:15.334Z,100253.38
2023-09-15T22:50:47.089Z,100252.53
2023-09-15T22:53:15.812Z,100253.38
2023-09-15T22:55:44.384Z,100252.53
2023-09-15T22:58:12.408Z,100253.38
2023-09-15T23:00:40.512Z,100263.41
2023-09-15T23:03:08.750Z,100258.19
2023-09-15T23:05:36.906Z,100266.34
2023-09-15T23:08:06.653Z,100253.50
2023-09-15T23:10:34.925Z,100263.63
2023-09-15T23:13:03.499Z,100261.97
2023-09-15T23:15:31.575Z,100263.88
2023-09-15T23:17:59.827Z,100252.19
2023-09-15T23:20:28.190Z,100257.63
2023-09-15T23:22:56.290Z,100251.59
2023-09-15T23:25:25.702Z,100258.69
2023-09-15T23:27:53.745Z,100255.13
2023-09-15T23:30:21.860Z,100251.59
2023-09-15T23:32:49.912Z,100247.25
2023-09-15T23:35:18.228Z,100249.97
2023-09-15T23:37:46.326Z,100248.06
2023-09-15T23:40:14.351Z,100241.81
2023-09-15T23:42:43.780Z,100241.81
2023-09-15T23:45:12.321Z,100241.81
2023-09-15T23:47:40.448Z,100244.53
2023-09-15T23:50:09.603Z,100236.38
2023-09-15T23:52:37.834Z,100248.06
2023-09-15T23:55:06.646Z,100247.25
2023-09-15T23:57:34.789Z,100251.03
